Strona główna
METAR-TAF:

METAR-TAF

Lotnisko :

Madison, Indiana, Stany Zjednoczone

Szerokość geograficzna: 38-45-36N, Długość geograficzna: 085-27-53W, wysokość: 250 m

Aktualna obserwacja pogody

Raport powstał 21 minut temu, godzina 19:35 UTC
Wiatr 3 kt od zachód
Temperatura 32°C
Wilgotność 59%
Ciśnienie 1016 hPa
Widzialność: 16.1 km
Rozproszone chmury na wysokości 3700 ft

METAR: KIMS 181935Z AUTO 26003KT 10SM SCT037 32/23 A2999 RMK AO1

czas: 15:56 (19:56 UTC)


TAF: brakujący

Obserwacja i prognoza pogody dla ponad 4000 lotnisk (raport METAR i TAF).

Dostępne stacje oznaczono żółtymi i czerwonymi punktami na mapie.

Najedź kursorem aby zobaczyć nazwę stacji.

Kliknij aby zobaczyć obserwacje i prognozy pogody.

Aby zmienić mapę: kliknij na zielony przycisk z czarnym krzyżykiem, aby powiększyć; na zielony przycisk z myślnikiem, aby pomniejszyć; na zielone strzałki, aby przejść do map sąsiednich.


METAR-TAF: